Time;durP1;ratioP1;P1;durP2;ratioP2;P2;SDS_P1;SDS_P2;PMS_P1;PMS_P2;Temp;Humidity;BMP_temperature;BMP_pressure;BME280_temperature;BME280_humidity;BME280_pressure;Samples;Min_cycle;Max_cycle;Signal;HPM_P1;HPM_P2
2022/11/17 00:01:40;;;;;;;17.33;4.67;;;;;;;;;;4985105;28;20522;-66
2022/11/17 00:04:05;;;;;;;10.47;4.67;;;;;;;;;;4987016;28;20294;-63
2022/11/17 00:06:30;;;;;;;8.30;3.73;;;;;;;;;;4987562;28;20340;-64
2022/11/17 00:08:55;;;;;;;7.70;4.20;;;;;;;;;;4983494;28;20301;-64
2022/11/17 00:11:20;;;;;;;6.67;3.87;;;;;;;;;;4988547;28;20367;-66
2022/11/17 00:16:30;;;;;;;11.13;4.43;;;;;;;;;;4988574;28;20034;-70
2022/11/17 00:21:39;;;;;;;9.20;3.90;;;;;;;;;;4991643;28;20281;-75
2022/11/17 00:24:04;;;;;;;7.22;4.32;;;;;;;;;;4989428;28;20049;-73
2022/11/17 00:26:31;;;;;;;9.68;4.50;;;;;;;;;;4991242;28;20393;-74
2022/11/17 00:28:57;;;;;;;6.18;3.55;;;;;;;;;;4991628;28;20042;-74
2022/11/17 00:34:09;;;;;;;7.72;3.90;;;;;;;;;;4992590;28;20035;-69
2022/11/17 00:36:39;;;;;;;7.13;3.55;;;;;;;;;;4990402;28;20069;-69
2022/11/17 00:39:05;;;;;;;11.82;4.25;;;;;;;;;;4990284;28;20022;-69
2022/11/17 00:41:30;;;;;;;10.18;4.65;;;;;;;;;;4990185;28;20549;-68
2022/11/17 00:43:55;;;;;;;10.67;4.63;;;;;;;;;;4992197;28;20432;-68
2022/11/17 00:46:20;;;;;;;8.90;3.93;;;;;;;;;;4989199;28;20653;-69
2022/11/17 00:48:46;;;;;;;8.70;4.63;;;;;;;;;;4990726;28;20717;-67
2022/11/17 00:51:11;;;;;;;7.85;4.25;;;;;;;;;;4991165;28;20033;-64
2022/11/17 00:53:36;;;;;;;10.57;4.60;;;;;;;;;;4991084;28;20039;-68
2022/11/17 00:56:02;;;;;;;9.47;3.80;;;;;;;;;;4990257;28;20333;-75
2022/11/17 00:58:27;;;;;;;7.70;3.87;;;;;;;;;;4990585;28;20355;-74
2022/11/17 01:00:52;;;;;;;9.90;4.67;;;;;;;;;;4989810;28;20373;-74
2022/11/17 01:03:17;;;;;;;11.13;5.47;;;;;;;;;;4989439;28;20775;-73
2022/11/17 01:05:42;;;;;;;8.25;3.70;;;;;;;;;;4990499;28;20824;-73
2022/11/17 01:08:08;;;;;;;8.37;3.67;;;;;;;;;;4992056;28;20027;-73
2022/11/17 01:10:34;;;;;;;9.00;4.20;;;;;;;;;;4987474;28;20500;-65
2022/11/17 01:12:59;;;;;;;6.97;3.92;;;;;;;;;;4989382;28;20053;-74
2022/11/17 01:15:24;;;;;;;7.50;3.73;;;;;;;;;;4990883;28;20597;-74
2022/11/17 01:17:49;;;;;;;10.20;4.27;;;;;;;;;;4991750;28;20053;-74
2022/11/17 01:20:14;;;;;;;12.17;4.13;;;;;;;;;;4997169;28;20281;-74
2022/11/17 01:22:39;;;;;;;11.17;4.57;;;;;;;;;;4989964;28;20281;-74
2022/11/17 01:25:05;;;;;;;7.93;4.00;;;;;;;;;;4986191;28;20285;-75
2022/11/17 01:27:30;;;;;;;8.38;3.65;;;;;;;;;;4989705;28;20026;-74
2022/11/17 01:29:55;;;;;;;8.97;4.47;;;;;;;;;;4989132;28;20105;-68
2022/11/17 01:32:20;;;;;;;7.03;3.70;;;;;;;;;;4984886;28;20046;-70
2022/11/17 01:34:46;;;;;;;12.17;4.47;;;;;;;;;;4991120;28;20282;-70
2022/11/17 01:37:20;;;;;;;8.30;3.67;;;;;;;;;;4990944;28;20281;-70
2022/11/17 01:39:45;;;;;;;7.57;4.00;;;;;;;;;;4998682;28;20387;-68
2022/11/17 01:42:21;;;;;;;8.52;4.65;;;;;;;;;;4984691;28;20023;-69
2022/11/17 01:45:03;;;;;;;10.05;4.07;;;;;;;;;;4990355;28;20105;-69
2022/11/17 01:47:32;;;;;;;5.93;3.85;;;;;;;;;;4987167;28;20034;-71
2022/11/17 01:50:17;;;;;;;11.05;4.57;;;;;;;;;;4989152;28;20092;-70
2022/11/17 01:52:43;;;;;;;12.50;4.32;;;;;;;;;;4984986;28;20168;-70
2022/11/17 01:55:09;;;;;;;7.13;3.63;;;;;;;;;;4991165;28;20109;-70
2022/11/17 01:57:37;;;;;;;7.68;3.72;;;;;;;;;;4988954;28;20364;-71
2022/11/17 02:00:06;;;;;;;8.65;4.35;;;;;;;;;;4987933;28;20056;-74
2022/11/17 02:02:32;;;;;;;8.75;4.10;;;;;;;;;;4987992;28;20022;-70
2022/11/17 02:05:02;;;;;;;8.20;4.10;;;;;;;;;;4990546;28;20128;-70
2022/11/17 02:07:30;;;;;;;9.48;4.18;;;;;;;;;;4989806;28;20026;-70
2022/11/17 02:09:56;;;;;;;8.48;3.70;;;;;;;;;;4989848;28;20493;-72
2022/11/17 02:12:23;;;;;;;9.90;4.72;;;;;;;;;;4987503;28;20031;-71
2022/11/17 02:14:49;;;;;;;12.95;3.63;;;;;;;;;;4991578;28;20030;-72
2022/11/17 02:17:14;;;;;;;8.63;4.30;;;;;;;;;;4988038;28;20027;-73
2022/11/17 02:19:40;;;;;;;8.00;4.22;;;;;;;;;;4985734;28;20085;-72
2022/11/17 02:22:17;;;;;;;10.05;4.07;;;;;;;;;;4990031;28;20032;-72
2022/11/17 02:24:45;;;;;;;5.75;3.15;;;;;;;;;;4990366;28;20085;-71
2022/11/17 02:27:36;;;;;;;10.35;3.67;;;;;;;;;;4989473;28;20053;-71
2022/11/17 02:30:01;;;;;;;6.40;3.75;;;;;;;;;;4986443;28;20022;-70
2022/11/17 02:32:30;;;;;;;6.47;3.87;;;;;;;;;;4989326;28;20085;-71
2022/11/17 02:35:05;;;;;;;11.18;4.03;;;;;;;;;;4985614;28;20368;-71
2022/11/17 02:37:31;;;;;;;7.97;3.92;;;;;;;;;;4987819;28;20140;-73
2022/11/17 02:40:12;;;;;;;8.77;3.88;;;;;;;;;;4985176;28;20671;-70
2022/11/17 02:45:27;;;;;;;7.43;4.07;;;;;;;;;;4985357;28;20596;-74
2022/11/17 02:47:53;;;;;;;6.40;4.00;;;;;;;;;;4988060;28;20057;-74
2022/11/17 02:50:20;;;;;;;6.75;3.25;;;;;;;;;;4985329;28;20058;-74
2022/11/17 02:52:46;;;;;;;8.70;3.97;;;;;;;;;;4990439;28;20077;-74
2022/11/17 02:55:12;;;;;;;7.35;3.30;;;;;;;;;;4982628;28;20490;-74
2022/11/17 02:57:38;;;;;;;8.52;3.92;;;;;;;;;;4990518;28;20061;-74
2022/11/17 03:00:11;;;;;;;8.35;3.88;;;;;;;;;;4985066;28;20429;-70
2022/11/17 03:02:52;;;;;;;7.03;3.58;;;;;;;;;;4989796;28;20034;-70
2022/11/17 03:05:17;;;;;;;8.32;4.20;;;;;;;;;;4984945;28;20033;-71
2022/11/17 03:08:01;;;;;;;6.77;3.57;;;;;;;;;;4989690;28;20377;-71
2022/11/17 03:10:33;;;;;;;6.30;3.25;;;;;;;;;;4985982;28;20057;-71
2022/11/17 03:13:00;;;;;;;6.95;3.72;;;;;;;;;;4988209;28;20034;-75
2022/11/17 03:15:26;;;;;;;7.65;4.13;;;;;;;;;;4988126;28;20034;-71
2022/11/17 03:18:17;;;;;;;8.98;4.28;;;;;;;;;;4985663;28;20385;-71
2022/11/17 03:20:52;;;;;;;8.07;3.83;;;;;;;;;;4984573;28;20038;-74
2022/11/17 03:23:20;;;;;;;7.25;4.30;;;;;;;;;;4988193;28;20038;-71
2022/11/17 03:25:48;;;;;;;6.93;3.80;;;;;;;;;;4987516;28;20077;-71
2022/11/17 03:28:14;;;;;;;7.85;3.97;;;;;;;;;;4986424;28;20370;-72
2022/11/17 03:30:41;;;;;;;9.52;4.65;;;;;;;;;;4989113;28;20031;-71
2022/11/17 03:33:10;;;;;;;7.85;4.38;;;;;;;;;;4982639;28;20065;-70
2022/11/17 03:35:37;;;;;;;5.63;3.88;;;;;;;;;;4987505;28;20089;-71
2022/11/17 03:38:06;;;;;;;10.80;4.75;;;;;;;;;;4986389;28;20084;-73
2022/11/17 03:40:32;;;;;;;6.75;4.63;;;;;;;;;;4988299;28;20440;-65
2022/11/17 03:42:58;;;;;;;6.43;4.07;;;;;;;;;;4982231;28;20057;-70
2022/11/17 03:45:25;;;;;;;8.18;4.32;;;;;;;;;;4981252;28;20046;-66
2022/11/17 03:47:55;;;;;;;12.57;4.65;;;;;;;;;;4985712;28;20073;-66
2022/11/17 03:50:23;;;;;;;10.23;4.07;;;;;;;;;;4999250;28;20084;-65
2022/11/17 03:52:48;;;;;;;8.10;4.00;;;;;;;;;;4987313;28;20041;-65
2022/11/17 03:55:14;;;;;;;5.78;4.15;;;;;;;;;;4984957;28;20022;-66
2022/11/17 03:57:52;;;;;;;10.13;3.83;;;;;;;;;;4987069;28;20109;-69
2022/11/17 04:00:18;;;;;;;9.15;4.20;;;;;;;;;;4986176;28;20030;-74
2022/11/17 04:02:44;;;;;;;8.40;3.75;;;;;;;;;;4986933;28;20023;-72
2022/11/17 04:05:10;;;;;;;8.63;4.00;;;;;;;;;;4987593;28;20049;-71
2022/11/17 04:07:39;;;;;;;6.43;3.47;;;;;;;;;;4983532;28;20556;-73
2022/11/17 04:10:05;;;;;;;9.32;4.18;;;;;;;;;;4987427;28;20022;-71
2022/11/17 04:17:58;;;;;;;9.52;4.50;;;;;;;;;;4988282;28;20121;-74
2022/11/17 04:20:23;;;;;;;7.40;3.72;;;;;;;;;;4988798;28;20418;-74
2022/11/17 04:23:07;;;;;;;5.22;2.95;;;;;;;;;;4989417;28;20044;-74
2022/11/17 04:28:35;;;;;;;4.20;2.80;;;;;;;;;;4988165;28;20447;-75
2022/11/17 04:31:04;;;;;;;7.80;3.35;;;;;;;;;;4987865;28;20022;-74
2022/11/17 04:33:29;;;;;;;3.85;2.47;;;;;;;;;;4987259;28;20053;-73
2022/11/17 04:35:55;;;;;;;7.25;3.38;;;;;;;;;;4985300;28;20031;-73
2022/11/17 04:38:21;;;;;;;4.30;2.92;;;;;;;;;;4986644;28;20038;-72
2022/11/17 04:43:29;;;;;;;5.80;3.30;;;;;;;;;;4985874;28;20289;-72
2022/11/17 04:45:59;;;;;;;8.63;2.80;;;;;;;;;;4986215;28;21595;-74
2022/11/17 04:48:24;;;;;;;6.07;3.00;;;;;;;;;;4984801;28;20296;-72
2022/11/17 04:50:52;;;;;;;3.20;2.60;;;;;;;;;;4986440;28;20022;-65
2022/11/17 04:53:17;;;;;;;6.90;3.67;;;;;;;;;;4986718;28;20129;-73
2022/11/17 04:55:42;;;;;;;7.63;3.33;;;;;;;;;;4987995;28;20109;-71
2022/11/17 04:58:07;;;;;;;9.73;2.63;;;;;;;;;;4987534;28;20381;-72
2022/11/17 05:00:32;;;;;;;7.03;2.30;;;;;;;;;;4989704;28;20313;-71
2022/11/17 05:02:58;;;;;;;6.43;2.67;;;;;;;;;;4989576;28;20365;-71
2022/11/17 05:05:23;;;;;;;6.53;3.08;;;;;;;;;;4993760;28;20269;-71
2022/11/17 05:07:48;;;;;;;4.07;2.53;;;;;;;;;;4992941;28;20026;-72
2022/11/17 05:10:14;;;;;;;7.30;2.50;;;;;;;;;;4993630;28;20037;-71
2022/11/17 05:17:03;;;;;;;6.07;3.10;;;;;;;;;;4989678;28;20466;-73
2022/11/17 05:18:08;;;;;;;6.22;2.42;;;;;;;;;;4991034;28;20035;-74
2022/11/17 05:20:33;;;;;;;5.27;2.83;;;;;;;;;;4992577;28;20096;-73
2022/11/17 05:25:42;;;;;;;6.85;2.63;;;;;;;;;;4988920;28;20105;-74
2022/11/17 05:28:07;;;;;;;4.63;2.73;;;;;;;;;;4992616;28;20125;-70
2022/11/17 05:30:32;;;;;;;3.70;2.30;;;;;;;;;;4995255;28;20284;-74
2022/11/17 05:32:57;;;;;;;5.27;2.30;;;;;;;;;;4993820;28;20297;-74
2022/11/17 05:35:23;;;;;;;7.77;3.00;;;;;;;;;;4995334;28;20277;-74
2022/11/17 05:37:48;;;;;;;4.88;2.80;;;;;;;;;;4988808;28;20690;-73
2022/11/17 05:40:13;;;;;;;6.53;3.33;;;;;;;;;;4991353;28;20041;-74
2022/11/17 05:42:38;;;;;;;5.57;2.45;;;;;;;;;;4985488;28;20277;-73
2022/11/17 05:45:04;;;;;;;5.37;3.07;;;;;;;;;;4992808;28;20029;-75
2022/11/17 05:47:29;;;;;;;6.13;2.88;;;;;;;;;;4986828;28;20321;-68
2022/11/17 05:49:54;;;;;;;5.33;2.57;;;;;;;;;;4994593;28;20030;-65
2022/11/17 05:52:19;;;;;;;4.20;2.60;;;;;;;;;;4987026;28;20648;-66
2022/11/17 05:54:45;;;;;;;6.80;2.90;;;;;;;;;;4994860;28;20754;-64
2022/11/17 05:57:15;;;;;;;5.50;2.60;;;;;;;;;;4992381;28;20297;-67
2022/11/17 05:59:43;;;;;;;5.05;2.95;;;;;;;;;;4989946;28;20282;-67
2022/11/17 06:02:08;;;;;;;7.38;3.28;;;;;;;;;;4992525;28;20049;-66
2022/11/17 06:04:33;;;;;;;4.63;3.00;;;;;;;;;;4994426;28;20113;-69
2022/11/17 06:06:59;;;;;;;6.78;2.70;;;;;;;;;;4989354;28;20749;-73
2022/11/17 06:09:30;;;;;;;4.70;2.88;;;;;;;;;;4989684;28;20033;-71
2022/11/17 06:11:55;;;;;;;6.55;2.88;;;;;;;;;;4993165;28;20069;-70
2022/11/17 06:14:20;;;;;;;6.80;2.80;;;;;;;;;;4992091;28;20255;-69
2022/11/17 06:16:46;;;;;;;8.00;3.30;;;;;;;;;;4988724;28;20711;-70
2022/11/17 06:19:13;;;;;;;6.90;3.20;;;;;;;;;;4993155;28;20332;-70
2022/11/17 06:21:39;;;;;;;5.25;2.55;;;;;;;;;;4994463;28;20023;-71
2022/11/17 06:24:05;;;;;;;5.13;2.65;;;;;;;;;;4993017;28;20034;-65
2022/11/17 06:26:32;;;;;;;7.35;2.45;;;;;;;;;;4992703;28;20034;-69
2022/11/17 06:28:57;;;;;;;8.00;3.22;;;;;;;;;;4987840;28;20034;-69
2022/11/17 06:31:24;;;;;;;8.50;3.58;;;;;;;;;;4990263;28;20073;-70
2022/11/17 06:33:49;;;;;;;8.20;3.53;;;;;;;;;;4988930;28;20030;-70
2022/11/17 06:36:14;;;;;;;5.75;2.90;;;;;;;;;;4985973;28;20032;-72
2022/11/17 06:38:39;;;;;;;6.90;2.93;;;;;;;;;;4990010;28;20026;-70
2022/11/17 06:41:05;;;;;;;6.20;3.00;;;;;;;;;;4992643;28;20280;-75
2022/11/17 06:43:31;;;;;;;6.22;2.88;;;;;;;;;;4990630;28;20280;-67
2022/11/17 06:45:59;;;;;;;5.68;2.75;;;;;;;;;;4990108;28;20168;-76
2022/11/17 06:48:26;;;;;;;6.57;2.63;;;;;;;;;;4990079;28;20061;-75
2022/11/17 06:50:51;;;;;;;6.68;2.97;;;;;;;;;;4986440;28;20041;-74
2022/11/17 06:53:17;;;;;;;4.50;2.47;;;;;;;;;;4992031;28;20046;-75
2022/11/17 06:55:44;;;;;;;7.18;2.83;;;;;;;;;;4989929;28;20378;-74
2022/11/17 06:58:13;;;;;;;5.15;2.63;;;;;;;;;;4988940;28;20541;-75
2022/11/17 07:00:38;;;;;;;8.23;2.55;;;;;;;;;;4991924;28;20038;-66
2022/11/17 07:03:04;;;;;;;7.57;2.80;;;;;;;;;;4989889;28;20053;-69
2022/11/17 07:05:30;;;;;;;4.97;2.92;;;;;;;;;;4989733;28;20022;-72
2022/11/17 07:07:57;;;;;;;6.13;2.80;;;;;;;;;;4989857;28;20379;-72
2022/11/17 07:10:22;;;;;;;7.68;3.05;;;;;;;;;;4986357;28;20200;-73
2022/11/17 07:12:47;;;;;;;5.87;2.70;;;;;;;;;;4987373;28;20583;-70
2022/11/17 07:15:12;;;;;;;4.53;2.63;;;;;;;;;;4987756;28;20356;-72
2022/11/17 07:17:38;;;;;;;7.77;3.50;;;;;;;;;;4992946;28;20277;-73
2022/11/17 07:20:03;;;;;;;6.22;3.55;;;;;;;;;;4987454;28;20286;-69
2022/11/17 07:22:28;;;;;;;7.85;3.78;;;;;;;;;;4991437;28;20031;-70
2022/11/17 07:24:53;;;;;;;6.75;2.47;;;;;;;;;;4990907;28;20026;-69
2022/11/17 07:27:25;;;;;;;4.30;2.40;;;;;;;;;;4990065;28;20061;-71
2022/11/17 07:29:50;;;;;;;3.97;2.45;;;;;;;;;;4986112;28;20285;-71
2022/11/17 07:32:15;;;;;;;6.17;2.60;;;;;;;;;;4984654;28;20390;-72
2022/11/17 07:34:41;;;;;;;3.60;2.47;;;;;;;;;;4990227;28;20704;-72
2022/11/17 07:37:06;;;;;;;4.30;2.65;;;;;;;;;;4990428;28;20473;-73
2022/11/17 07:39:32;;;;;;;5.20;2.97;;;;;;;;;;4990445;28;20037;-73
2022/11/17 07:41:58;;;;;;;6.90;3.30;;;;;;;;;;4994364;28;20364;-74
2022/11/17 07:44:23;;;;;;;11.15;2.72;;;;;;;;;;4990182;28;20030;-74
2022/11/17 07:46:48;;;;;;;6.13;2.72;;;;;;;;;;4989795;28;20097;-76
2022/11/17 07:49:14;;;;;;;4.68;2.42;;;;;;;;;;4989889;28;20130;-75
2022/11/17 07:51:39;;;;;;;5.20;2.63;;;;;;;;;;4987659;28;20188;-74
2022/11/17 07:54:04;;;;;;;4.07;2.53;;;;;;;;;;4988485;28;20030;-73
2022/11/17 07:56:29;;;;;;;3.75;2.35;;;;;;;;;;4985092;28;20777;-68
2022/11/17 07:58:55;;;;;;;5.70;2.30;;;;;;;;;;4988850;28;20681;-67
2022/11/17 08:01:20;;;;;;;5.25;3.17;;;;;;;;;;4989687;28;20273;-66
2022/11/17 08:03:45;;;;;;;6.33;2.50;;;;;;;;;;4988524;28;20390;-68
2022/11/17 08:06:10;;;;;;;6.83;2.90;;;;;;;;;;4988255;28;20698;-65
2022/11/17 08:08:36;;;;;;;5.95;2.42;;;;;;;;;;4990177;28;20312;-65
2022/11/17 08:11:05;;;;;;;7.88;2.70;;;;;;;;;;4988850;28;20084;-66
2022/11/17 08:13:31;;;;;;;7.53;2.97;;;;;;;;;;4997868;28;20501;-74
2022/11/17 08:15:57;;;;;;;8.57;2.38;;;;;;;;;;4989209;28;20056;-71
2022/11/17 08:18:23;;;;;;;3.38;1.65;;;;;;;;;;4989054;28;20034;-72
2022/11/17 08:20:48;;;;;;;7.37;2.50;;;;;;;;;;4985001;28;20510;-71
2022/11/17 08:23:13;;;;;;;6.63;1.70;;;;;;;;;;4989027;28;20343;-74
2022/11/17 08:25:38;;;;;;;3.57;1.40;;;;;;;;;;4988075;28;20413;-71
2022/11/17 08:28:03;;;;;;;6.07;2.53;;;;;;;;;;4988844;28;20629;-70
2022/11/17 08:30:32;;;;;;;4.90;1.17;;;;;;;;;;4989187;28;20641;-71
2022/11/17 08:32:57;;;;;;;2.20;1.08;;;;;;;;;;4986855;28;20485;-75
2022/11/17 08:35:23;;;;;;;1.53;1.00;;;;;;;;;;4990975;28;20053;-68
2022/11/17 08:37:49;;;;;;;3.42;1.33;;;;;;;;;;4991002;28;20364;-69
2022/11/17 08:40:14;;;;;;;3.28;1.02;;;;;;;;;;4993056;28;20161;-69
2022/11/17 08:42:40;;;;;;;3.65;1.33;;;;;;;;;;4992046;28;20030;-70
2022/11/17 08:45:06;;;;;;;5.32;1.10;;;;;;;;;;4998978;28;20436;-70
2022/11/17 08:47:31;;;;;;;1.67;0.90;;;;;;;;;;4993808;28;20549;-70
2022/11/17 08:49:56;;;;;;;2.60;1.02;;;;;;;;;;4991592;28;20065;-72
2022/11/17 08:52:22;;;;;;;6.55;1.65;;;;;;;;;;4992458;28;20462;-73
2022/11/17 08:54:47;;;;;;;3.95;1.20;;;;;;;;;;4991764;28;20133;-74
2022/11/17 08:57:15;;;;;;;3.75;1.27;;;;;;;;;;4994050;28;20476;-72
2022/11/17 08:59:40;;;;;;;1.50;0.95;;;;;;;;;;4991943;28;20045;-71
2022/11/17 09:02:05;;;;;;;4.63;1.13;;;;;;;;;;4992407;28;20026;-72
2022/11/17 09:04:31;;;;;;;3.72;1.02;;;;;;;;;;4992009;28;20277;-72
2022/11/17 09:06:56;;;;;;;3.37;1.00;;;;;;;;;;4992335;28;20085;-72
2022/11/17 09:09:21;;;;;;;2.60;1.10;;;;;;;;;;4991779;28;20289;-71
2022/11/17 09:11:46;;;;;;;0.73;0.70;;;;;;;;;;4994328;28;20293;-75
2022/11/17 09:14:11;;;;;;;6.03;1.33;;;;;;;;;;4994169;28;20273;-76
2022/11/17 09:16:37;;;;;;;4.07;1.10;;;;;;;;;;4999474;28;20305;-77
2022/11/17 09:19:02;;;;;;;4.53;0.95;;;;;;;;;;4993552;28;20363;-73
2022/11/17 09:21:29;;;;;;;2.10;0.90;;;;;;;;;;4991956;28;20046;-74
2022/11/17 09:23:54;;;;;;;2.08;1.27;;;;;;;;;;4993651;28;20038;-75
2022/11/17 09:26:19;;;;;;;2.75;0.88;;;;;;;;;;4991452;28;20018;-74
2022/11/17 09:28:45;;;;;;;1.63;0.95;;;;;;;;;;4988821;28;20266;-78
2022/11/17 09:31:12;;;;;;;2.53;0.80;;;;;;;;;;4992227;28;20116;-76
2022/11/17 09:33:37;;;;;;;3.28;1.00;;;;;;;;;;4991112;28;20446;-74
2022/11/17 09:36:03;;;;;;;0.90;0.68;;;;;;;;;;4992307;28;20112;-75
2022/11/17 09:38:28;;;;;;;2.28;0.93;;;;;;;;;;4993230;28;20034;-74
2022/11/17 09:40:57;;;;;;;2.33;0.80;;;;;;;;;;4987699;28;20363;-75
2022/11/17 09:43:27;;;;;;;1.70;0.88;;;;;;;;;;4993312;28;20038;-73
2022/11/17 09:45:56;;;;;;;1.17;0.70;;;;;;;;;;4990394;28;20058;-70
2022/11/17 09:48:31;;;;;;;2.92;1.20;;;;;;;;;;4999131;28;20225;-68
2022/11/17 09:50:57;;;;;;;3.60;1.02;;;;;;;;;;4990498;28;20034;-66
2022/11/17 09:53:24;;;;;;;3.00;1.30;;;;;;;;;;4990765;28;20026;-68
2022/11/17 09:55:51;;;;;;;2.85;1.33;;;;;;;;;;4991629;28;20052;-67
2022/11/17 09:58:31;;;;;;;2.05;1.00;;;;;;;;;;4990079;28;20018;-64
2022/11/17 10:00:57;;;;;;;2.97;1.20;;;;;;;;;;4991732;28;20113;-67
2022/11/17 10:03:25;;;;;;;4.43;1.27;;;;;;;;;;4990263;28;20501;-70
2022/11/17 10:05:51;;;;;;;2.55;1.00;;;;;;;;;;4988753;28;20026;-66
2022/11/17 10:08:19;;;;;;;4.25;1.40;;;;;;;;;;4992937;28;20089;-74
2022/11/17 10:10:49;;;;;;;3.50;1.13;;;;;;;;;;4992908;28;20081;-73
2022/11/17 10:13:25;;;;;;;5.85;1.80;;;;;;;;;;4988209;28;20041;-73
2022/11/17 10:15:54;;;;;;;1.95;1.08;;;;;;;;;;4991947;28;20488;-73
2022/11/17 10:18:19;;;;;;;2.80;1.05;;;;;;;;;;4991134;28;20040;-72
2022/11/17 10:20:45;;;;;;;7.33;1.50;;;;;;;;;;4997962;28;20093;-76
2022/11/17 10:23:17;;;;;;;7.88;1.70;;;;;;;;;;4990972;28;20664;-70
2022/11/17 10:25:47;;;;;;;5.95;1.20;;;;;;;;;;4990748;28;20058;-77
2022/11/17 10:28:42;;;;;;;5.22;1.35;;;;;;;;;;4992098;28;20117;-77
2022/11/17 10:31:09;;;;;;;5.97;1.33;;;;;;;;;;4984302;28;20030;-77
2022/11/17 10:33:35;;;;;;;2.70;1.10;;;;;;;;;;4988757;28;20397;-73
2022/11/17 10:36:00;;;;;;;3.57;1.07;;;;;;;;;;4986533;28;20030;-76
2022/11/17 10:38:27;;;;;;;3.45;1.27;;;;;;;;;;4991240;28;20269;-79
2022/11/17 10:40:53;;;;;;;4.60;1.40;;;;;;;;;;4992510;28;20546;-72
2022/11/17 10:43:22;;;;;;;3.85;1.20;;;;;;;;;;4990981;28;20116;-68
2022/11/17 10:45:50;;;;;;;5.63;1.15;;;;;;;;;;4989836;28;20084;-68
2022/11/17 10:48:15;;;;;;;2.83;1.27;;;;;;;;;;5003388;28;20030;-69
2022/11/17 10:50:50;;;;;;;5.18;1.20;;;;;;;;;;4991259;28;20037;-69
2022/11/17 10:53:27;;;;;;;4.15;1.27;;;;;;;;;;4997729;28;20030;-68
2022/11/17 10:55:54;;;;;;;5.20;1.45;;;;;;;;;;4990814;28;20030;-71
2022/11/17 10:58:19;;;;;;;4.20;1.50;;;;;;;;;;4991085;28;20026;-74
2022/11/17 11:00:50;;;;;;;5.20;1.30;;;;;;;;;;4990809;28;20027;-71
2022/11/17 11:03:17;;;;;;;4.18;1.55;;;;;;;;;;4989255;28;20049;-70
2022/11/17 11:05:55;;;;;;;16.73;1.85;;;;;;;;;;4991537;28;20034;-67
2022/11/17 11:08:22;;;;;;;4.60;1.25;;;;;;;;;;4991170;28;20544;-67
2022/11/17 11:10:50;;;;;;;8.20;2.35;;;;;;;;;;4990380;28;20034;-67
2022/11/17 11:13:15;;;;;;;6.85;2.28;;;;;;;;;;4989144;28;20029;-68
2022/11/17 11:15:40;;;;;;;4.03;1.40;;;;;;;;;;4987444;28;20086;-67
2022/11/17 11:18:13;;;;;;;3.15;1.25;;;;;;;;;;4992661;28;20277;-73
2022/11/17 11:20:42;;;;;;;8.32;2.97;;;;;;;;;;4990361;28;20034;-70
2022/11/17 11:23:13;;;;;;;3.45;1.27;;;;;;;;;;4992479;28;20035;-70
2022/11/17 11:26:07;;;;;;;3.63;1.40;;;;;;;;;;4996145;28;20132;-71
2022/11/17 11:28:37;;;;;;;6.15;2.25;;;;;;;;;;4990740;28;20037;-70
2022/11/17 11:31:14;;;;;;;9.95;1.67;;;;;;;;;;4989114;28;20066;-69
2022/11/17 11:33:58;;;;;;;3.95;1.40;;;;;;;;;;4990201;28;20042;-71
2022/11/17 11:36:35;;;;;;;3.50;1.20;;;;;;;;;;4984696;28;20026;-72
2022/11/17 11:39:30;;;;;;;5.00;1.38;;;;;;;;;;4991314;28;20045;-73
2022/11/17 11:42:01;;;;;;;5.57;1.38;;;;;;;;;;4988078;28;20141;-73
2022/11/17 11:44:41;;;;;;;6.45;1.80;;;;;;;;;;4989445;28;20045;-73
2022/11/17 11:47:25;;;;;;;10.68;1.88;;;;;;;;;;4989465;28;20022;-74
2022/11/17 11:49:50;;;;;;;7.90;1.80;;;;;;;;;;4983980;28;20038;-71
2022/11/17 11:52:20;;;;;;;9.00;2.30;;;;;;;;;;4989885;28;20477;-71
2022/11/17 11:54:48;;;;;;;7.05;2.28;;;;;;;;;;4992537;28;20429;-71
2022/11/17 11:57:14;;;;;;;7.35;1.42;;;;;;;;;;4996703;28;20108;-73
2022/11/17 11:59:55;;;;;;;8.25;2.03;;;;;;;;;;4983925;28;20504;-73
2022/11/17 12:02:33;;;;;;;5.72;1.95;;;;;;;;;;4989435;28;20105;-70
2022/11/17 12:05:04;;;;;;;6.72;2.00;;;;;;;;;;4987945;28;20030;-71
2022/11/17 12:07:29;;;;;;;10.35;2.50;;;;;;;;;;4989752;28;20076;-73
2022/11/17 12:10:21;;;;;;;5.63;2.37;;;;;;;;;;4988844;28;20034;-73
2022/11/17 12:12:46;;;;;;;5.20;1.67;;;;;;;;;;4982603;28;20046;-66
2022/11/17 12:15:17;;;;;;;6.47;2.35;;;;;;;;;;4988904;28;20089;-66
2022/11/17 12:18:03;;;;;;;6.70;1.70;;;;;;;;;;4988615;28;20050;-65
2022/11/17 12:20:37;;;;;;;5.60;1.63;;;;;;;;;;4987186;28;20035;-66
2022/11/17 12:23:08;;;;;;;4.35;1.67;;;;;;;;;;4988439;28;20033;-66
2022/11/17 12:25:34;;;;;;;6.30;1.60;;;;;;;;;;4991083;28;20026;-65
2022/11/17 12:28:17;;;;;;;7.15;1.65;;;;;;;;;;4994239;28;20086;-70
2022/11/17 12:30:42;;;;;;;4.60;1.70;;;;;;;;;;4989622;28;20042;-71
2022/11/17 12:33:08;;;;;;;3.73;1.23;;;;;;;;;;4988727;28;20405;-70
2022/11/17 12:35:34;;;;;;;3.53;1.40;;;;;;;;;;4991306;28;20073;-70
2022/11/17 12:38:20;;;;;;;3.75;1.40;;;;;;;;;;4989819;28;20036;-70
2022/11/17 12:40:52;;;;;;;5.60;1.52;;;;;;;;;;4979474;28;20065;-71
2022/11/17 12:43:18;;;;;;;4.78;1.42;;;;;;;;;;4989637;28;20022;-71
2022/11/17 12:46:02;;;;;;;5.55;1.50;;;;;;;;;;4990322;28;20018;-70
2022/11/17 12:48:30;;;;;;;7.43;1.95;;;;;;;;;;4988838;28;20474;-70
2022/11/17 12:51:07;;;;;;;7.35;2.33;;;;;;;;;;4988331;28;20065;-71
2022/11/17 12:53:51;;;;;;;8.18;2.33;;;;;;;;;;4993704;28;20061;-67
2022/11/17 12:56:38;;;;;;;7.75;2.60;;;;;;;;;;4984172;28;20030;-67
2022/11/17 12:59:24;;;;;;;10.98;1.85;;;;;;;;;;4990414;28;20129;-70
2022/11/17 13:01:49;;;;;;;8.38;2.13;;;;;;;;;;4992235;28;20542;-68
2022/11/17 13:04:20;;;;;;;7.87;2.10;;;;;;;;;;4984217;28;20019;-67
2022/11/17 13:07:01;;;;;;;10.27;2.83;;;;;;;;;;4988954;28;20022;-68
2022/11/17 13:09:28;;;;;;;8.32;1.90;;;;;;;;;;4985174;28;20525;-68
2022/11/17 13:11:58;;;;;;;6.43;2.42;;;;;;;;;;4987447;28;20037;-69
2022/11/17 13:14:23;;;;;;;7.75;1.95;;;;;;;;;;4986673;28;20062;-69
2022/11/17 13:16:49;;;;;;;7.43;2.63;;;;;;;;;;4988506;28;20065;-70
2022/11/17 13:19:29;;;;;;;8.25;2.63;;;;;;;;;;4986873;28;20444;-68
2022/11/17 13:21:59;;;;;;;6.57;2.50;;;;;;;;;;4988624;28;20109;-68
2022/11/17 13:24:32;;;;;;;9.40;1.88;;;;;;;;;;4984107;28;20122;-69
2022/11/17 13:26:58;;;;;;;9.05;2.08;;;;;;;;;;4993257;28;20093;-74
2022/11/17 13:29:24;;;;;;;6.97;2.00;;;;;;;;;;4990409;28;20026;-71
2022/11/17 13:31:49;;;;;;;5.73;2.30;;;;;;;;;;4995333;28;20018;-68
2022/11/17 13:34:15;;;;;;;4.37;1.30;;;;;;;;;;4989571;28;20353;-70
2022/11/17 13:36:54;;;;;;;5.53;2.40;;;;;;;;;;4983571;28;20029;-69
2022/11/17 13:39:19;;;;;;;6.28;1.50;;;;;;;;;;4991242;28;20117;-70
2022/11/17 13:41:44;;;;;;;5.43;1.67;;;;;;;;;;4989854;28;20098;-72
2022/11/17 13:44:12;;;;;;;9.18;2.03;;;;;;;;;;4991959;28;20298;-68
2022/11/17 13:46:38;;;;;;;6.20;2.00;;;;;;;;;;4989394;28;20039;-70
2022/11/17 13:49:23;;;;;;;6.85;1.83;;;;;;;;;;4990444;28;20053;-72
2022/11/17 13:51:48;;;;;;;9.05;2.75;;;;;;;;;;4985971;28;20035;-72
2022/11/17 13:54:15;;;;;;;10.25;2.10;;;;;;;;;;4991489;28;20045;-72
2022/11/17 13:56:40;;;;;;;8.95;2.40;;;;;;;;;;4988571;28;20048;-72
2022/11/17 13:59:17;;;;;;;11.50;2.97;;;;;;;;;;4988507;28;20540;-72
2022/11/17 14:01:43;;;;;;;9.68;2.22;;;;;;;;;;4989917;28;20738;-71
2022/11/17 14:04:11;;;;;;;5.55;2.03;;;;;;;;;;5000049;28;20162;-73
2022/11/17 14:06:57;;;;;;;6.93;1.98;;;;;;;;;;4992171;28;20521;-75
2022/11/17 14:09:23;;;;;;;8.38;1.95;;;;;;;;;;4989189;28;20811;-76
2022/11/17 14:11:49;;;;;;;10.57;2.65;;;;;;;;;;4991097;28;20022;-73
2022/11/17 14:14:18;;;;;;;8.10;2.55;;;;;;;;;;4990950;28;20018;-76
2022/11/17 14:16:44;;;;;;;6.50;1.83;;;;;;;;;;4988844;28;20026;-78
2022/11/17 14:19:09;;;;;;;11.77;3.15;;;;;;;;;;4990777;28;20053;-75
2022/11/17 14:21:34;;;;;;;8.87;2.53;;;;;;;;;;4990552;28;20053;-72
2022/11/17 14:24:04;;;;;;;9.47;2.40;;;;;;;;;;4991863;28;20431;-67
2022/11/17 14:26:30;;;;;;;10.88;2.70;;;;;;;;;;4990053;28;20288;-66
2022/11/17 14:29:00;;;;;;;10.38;2.35;;;;;;;;;;4990369;28;20014;-65
2022/11/17 14:31:26;;;;;;;8.50;2.80;;;;;;;;;;4993180;28;20057;-69
2022/11/17 14:33:51;;;;;;;8.75;3.17;;;;;;;;;;4991711;28;20026;-66
2022/11/17 14:36:17;;;;;;;10.68;3.13;;;;;;;;;;4994991;28;20050;-67
2022/11/17 14:38:45;;;;;;;9.60;2.50;;;;;;;;;;4988303;28;20033;-68
2022/11/17 14:41:12;;;;;;;10.55;3.33;;;;;;;;;;4992370;28;20104;-72
2022/11/17 14:43:37;;;;;;;9.48;2.97;;;;;;;;;;4991696;28;20391;-67
2022/11/17 14:46:02;;;;;;;7.72;2.47;;;;;;;;;;4993561;28;20125;-69
2022/11/17 14:48:27;;;;;;;12.52;3.20;;;;;;;;;;4990971;28;20041;-68
2022/11/17 14:50:56;;;;;;;11.18;3.85;;;;;;;;;;4991810;28;20125;-68
2022/11/17 14:53:22;;;;;;;10.83;3.47;;;;;;;;;;4990208;28;20049;-67
2022/11/17 14:55:47;;;;;;;8.68;3.83;;;;;;;;;;4992165;28;20269;-68
2022/11/17 14:58:12;;;;;;;12.00;3.50;;;;;;;;;;4989991;28;20369;-70
2022/11/17 15:00:37;;;;;;;11.90;3.20;;;;;;;;;;4989336;28;20038;-71
2022/11/17 15:03:03;;;;;;;12.37;2.77;;;;;;;;;;4991794;28;20273;-75
2022/11/17 15:05:28;;;;;;;8.55;2.40;;;;;;;;;;4989233;28;20277;-75
2022/11/17 15:07:54;;;;;;;9.00;3.37;;;;;;;;;;4995285;28;20041;-74
2022/11/17 15:10:19;;;;;;;11.27;3.40;;;;;;;;;;4990896;28;20109;-74
2022/11/17 15:12:45;;;;;;;12.90;3.10;;;;;;;;;;4991727;28;20117;-74
2022/11/17 15:15:10;;;;;;;7.63;2.87;;;;;;;;;;4989856;28;20300;-73